Historyczne dane pomiarowe

Dodano dane terminowe – wersja testowa.

Dane z okresu 1951-2019

Wersja bazy: 1.34 [2019-03-16, lista zmian], aktualizacja planowana na 2019-04-15

Dane meteo z obszaru Polski uzyskane na podstawie danych udostępnionych przez Instytut Meteorologii i Gospodarki Wodnej – Państwowy Instytut Badawczy.

 

Wybierz Datę:    

       

TemperaturaWilgotnośćWiatrCiśnienieOpadyŚniegCzas trwania zjawisk
 Stacja t tx tn tng RH VA  wxwx mslp ppp RRR   cm mm wxwxwxwxwxwxwx
1961-02-15 5.0 9.0 2.7- 89.8- 3.3 7.0---- 0.1------------
1961-02-14 2.6 3.8 -0.7- 92.0- 4.3 5.0---- 0.2------------
1961-02-13 1.7 3.4 0.4- 94.0- 5.7 2.7---- 0.0------------
1961-02-12 3.2 4.7 2.2- 85.5- 7.0 3.7---- 0.0------------
1961-02-11 3.5 4.6 0.9- 94.5- 8.0 7.7---- 4.2------------
1961-02-10 1.1 1.4 0.2- 88.8- 8.0 3.7---- 0.6------------
1961-02-09 0.7 2.4 -0.3- 94.0- 7.3 5.7---- 2.0------------
1961-02-08 2.4 3.6 1.6- 91.3- 5.0 7.0---- 0.0------------
1961-02-07 3.6 5.4 0.7- 82.5- 4.3 6.0---- 0.0-- 2---------
1961-02-06 -0.4 1.8 -4.4- 79.0- 5.7 8.0---- 0.0-- 5---------
1961-02-05 -1.1 0.8 -5.8- 84.0- 3.0 5.3---- 0.8-- 3---------
1961-02-04 -2.7 0.8 -4.8- 90.3- 4.0 2.7---- 2.5-- 2---------
1961-02-03 0.3 1.8 -0.3- 90.3- 6.0 2.3---- 0.2------------
1961-02-02 1.9 3.2 0.3- 86.5- 5.7 3.3---- 0.3------------
1961-02-01 1.9 3.8 0.8- 88.3- 4.7 5.7---- 1.5------------
1961-01-31 3.9 5.2 2.4- 86.0- 5.0 7.7---- 0.7------------
1961-01-30 4.5 5.5 3.2- 87.5- 7.7 14.0---- 3.6------------
1961-01-29 3.0 5.5 -6.3- 81.3- 7.7 11.7---- 3.4-- 2---------
1961-01-28 -3.4 -0.3 -7.5- 61.5- 3.7 5.7---- 0.0-- 2---------
1961-01-27 -6.2 -2.1 -8.7- 62.3- 0.7 7.0---- 0.0-- 3---------
1961-01-26 -7.7 -5.8-10.9- 74.8- 2.7 8.3---- 0.0-- 4---------
1961-01-25 -7.7 -3.0-11.4- 75.0- 4.7 3.0---- 0.0-- 5---------
1961-01-24 -2.6 0.0 -4.7- 75.0- 7.0 3.7---- 2.8-- 1---------
1961-01-23 -0.9 0.0 -4.2- 85.0- 4.7 5.7---- 0.1------------
1961-01-22 -3.1 -1.5 -7.2- 78.0- 5.7 0.7---- 0.0------------
1961-01-21 -5.6 -2.6 -7.7- 81.0- 1.3 1.3---- 0.0------------
1961-01-20 -2.5 2.3 -8.3- 64.3- 0.0 2.7---- 0.0------------
1961-01-19 -4.1 -0.2 -7.0- 56.0- 1.7 1.3---- 0.0------------
1961-01-18 -5.9 -1.8 -9.0- 63.5- 0.0 2.3---- 0.0------------
1961-01-17 -1.6 0.2 -3.2- 63.3- 1.3 4.3---- 0.0------------
1961-01-16 1.7 4.2 -0.2- 82.8- 4.0 4.7---- 0.0------------
1961-01-15 2.8 3.5 0.3- 90.3- 7.7 10.0---- 0.0------------
1961-01-14 2.2 3.8 -1.7- 89.0- 5.3 4.3---- 0.0------------
1961-01-13 0.2 1.3 -5.0- 84.0- 7.7 10.3---- 0.2-- 3---------
1961-01-12 0.8 1.5 -0.9- 84.8- 5.3 7.0---- 3.5-- 1---------
1961-01-11 1.1 2.7 0.3- 86.5- 7.3 4.3---- 3.3------------
1961-01-10 1.4 2.8 0.0- 87.5- 4.0 5.3---- 0.3------------
1961-01-09 1.7 2.3 -0.1- 91.8- 8.0 3.0---- 1.2-- 2---------
1961-01-08 0.8 1.4 -0.9- 90.3- 6.7 3.3---- 0.8-- 2---------
1961-01-07 0.8 1.6 -0.8- 81.8- 7.7 2.7---- 0.5-- 3---------
1961-01-06 0.9 2.5 -1.0- 87.5- 4.0 5.3---- 0.5-- 5---------
1961-01-05 1.7 4.4 0.4- 85.8- 5.7 3.0---- 6.2------------
1961-01-04 3.5 4.4 1.1- 88.0- 8.0 4.7---- 0.4------------
1961-01-03 1.3 1.9 -1.0- 84.8- 8.0 12.0---- 2.5------------
1961-01-02 0.4 1.2 -2.2- 87.3- 5.3 2.3---- 0.0-- 1---------
1961-01-01 0.1 1.2 -3.3- 85.8- 8.0 1.7---- 0.0-- 1---------
1960-12-31 -1.1 0.9 -2.9- 90.3- 5.3 1.7---- 0.1------------
1960-12-30 0.0 1.5 -2.1- 85.3- 7.7 1.0---- 0.0------------
1960-12-29 -0.9 2.9 -2.1- 88.8- 7.0 2.0---- 0.0------------
1960-12-28 2.2 3.3 -0.6- 89.3- 7.7 1.3---- 0.3------------
1960-12-27 1.2 2.2 -0.1- 83.5- 5.7 2.7---- 0.0------------
1960-12-26 0.9 1.6 -1.1- 86.3- 5.7 7.7---- 0.0------------
1960-12-25 1.3 2.6 -0.9- 79.5- 3.7 5.7---- 0.0------------
1960-12-24 2.3 2.9 -1.1- 87.8- 6.7 3.7---- 0.0------------
1960-12-23 1.3 3.1 -0.8- 87.5- 4.7 7.0---- 0.1------------
1960-12-22 3.2 6.1 1.1- 86.0- 7.3 5.3---- 0.5------------
1960-12-21 2.4 3.4 -0.2- 93.5- 8.0 3.7---- 0.5-- 1---------
1960-12-20 0.5 2.3 -1.1- 87.8- 7.7 1.3---- 0.1-- 1---------
1960-12-19 2.9 5.1 0.8- 83.3- 8.0 3.7---- 0.0------------
1960-12-18 1.8 2.8 0.6- 92.8- 8.0 3.0---- 2.7------------
290.7 ms

 

Źródłem pochodzenia danych jest Instytut Meteorologii i Gospodarki Wodnej – Państwowy Instytut Badawczy. Dane Instytutu Meteorologii i Gospodarki Wodnej – Państwowego Instytutu Badawczego zostały przetworzone.

Dane źródłowe można odnaleźć na stronie https://dane.imgw.pl